Time;durP1;ratioP1;P1;durP2;ratioP2;P2;SDS_P1;SDS_P2;PMS_P1;PMS_P2;Temp;Humidity;BMP_temperature;BMP_pressure;BME280_temperature;BME280_humidity;BME280_pressure;Samples;Min_cycle;Max_cycle;Signal;HPM_P1;HPM_P2
2021/07/01 00:00:34;;;;;;;;;5.75;5.75;;;;;16.74;64.63;101052.34;5077438;27;45445;-60
2021/07/01 00:02:59;;;;;;;;;6.75;5.75;;;;;16.74;64.98;101060.31;5077332;27;45401;-60
2021/07/01 00:05:25;;;;;;;;;8.25;6.50;;;;;16.74;64.38;101049.69;5076945;27;58039;-59
2021/07/01 00:07:50;;;;;;;;;5.75;5.25;;;;;16.75;64.44;101046.06;5077170;27;45980;-59
2021/07/01 00:10:18;;;;;;;;;7.50;5.00;;;;;16.76;64.51;101050.38;5076534;27;62823;-60
2021/07/01 00:12:43;;;;;;;;;9.50;8.25;;;;;16.77;64.14;101046.72;5077352;28;45379;-59
2021/07/01 00:15:10;;;;;;;;;8.00;6.25;;;;;16.77;63.95;101044.06;5076381;27;69527;-59
2021/07/01 00:17:36;;;;;;;;;7.75;7.00;;;;;16.76;64.84;101050.38;5077098;27;46021;-59
2021/07/01 00:20:03;;;;;;;;;4.50;4.50;;;;;16.76;65.48;101055.66;5075888;27;69393;-59
2021/07/01 00:22:28;;;;;;;;;7.50;6.00;;;;;16.75;65.54;101051.34;5077332;27;45284;-60
2021/07/01 00:24:54;;;;;;;;;6.75;5.00;;;;;16.74;65.64;101052.34;5076772;27;55954;-60
2021/07/01 00:27:19;;;;;;;;;7.00;5.00;;;;;16.74;65.64;101054.16;5076737;27;49659;-59
2021/07/01 00:29:44;;;;;;;;;13.25;9.25;;;;;16.74;65.52;101054.16;5076016;27;71872;-59
2021/07/01 00:32:10;;;;;;;;;15.50;13.25;;;;;16.75;64.97;101053.16;5076341;27;56478;-59
2021/07/01 00:34:35;;;;;;;;;17.75;14.25;;;;;16.74;64.89;101049.69;5076316;27;61772;-59
2021/07/01 00:37:01;;;;;;;;;20.25;18.50;;;;;16.76;64.47;101052.19;5076804;27;46109;-59
2021/07/01 00:39:26;;;;;;;;;18.50;15.50;;;;;16.77;64.31;101051.19;5076146;27;65117;-60
2021/07/01 00:41:51;;;;;;;;;22.25;15.00;;;;;16.76;64.16;101057.47;5076283;27;62188;-60
2021/07/01 00:44:17;;;;;;;;;11.25;8.75;;;;;16.77;65.02;101056.50;5076871;27;45504;-60
2021/07/01 00:46:42;;;;;;;;;8.00;7.75;;;;;16.75;65.61;101053.16;5076420;27;51027;-60
2021/07/01 00:49:08;;;;;;;;;10.25;8.50;;;;;16.73;65.63;101052.50;5075042;28;59608;-60
2021/07/01 00:51:33;;;;;;;;;10.25;7.25;;;;;16.71;65.84;101055.34;5076903;27;45973;-58
2021/07/01 00:53:58;;;;;;;;;9.00;9.00;;;;;16.70;65.63;101052.81;5075619;27;45373;-58
2021/07/01 00:56:24;;;;;;;;;9.50;7.00;;;;;16.68;65.72;101054.84;5074600;28;71216;-60
2021/07/01 00:58:52;;;;;;;;;11.50;7.50;;;;;16.66;65.74;101055.00;5076665;27;45381;-60
2021/07/01 01:01:17;;;;;;;;;10.25;8.50;;;;;16.66;65.74;101046.22;5076723;27;45302;-61
2021/07/01 01:03:43;;;;;;;;;9.00;8.00;;;;;16.65;65.80;101055.97;5076565;27;46879;-59
2021/07/01 01:06:08;;;;;;;;;13.75;8.50;;;;;16.65;65.66;101047.22;5076199;27;45831;-60
2021/07/01 01:08:34;;;;;;;;;11.25;8.00;;;;;16.63;66.03;101049.19;5075037;28;46586;-59
2021/07/01 01:10:59;;;;;;;;;11.50;8.00;;;;;16.59;66.13;101048.69;5076471;27;45790;-59
2021/07/01 01:13:25;;;;;;;;;8.25;6.75;;;;;16.57;65.94;101053.31;5076166;27;48202;-60
2021/07/01 01:15:58;;;;;;;;;8.75;8.25;;;;;16.55;66.29;101050.84;5076364;27;45944;-59
2021/07/01 01:18:23;;;;;;;;;9.75;8.00;;;;;16.54;66.06;101057.13;5076124;27;45861;-59
2021/07/01 01:20:49;;;;;;;;;13.50;7.75;;;;;16.52;66.19;101052.97;5076279;27;45270;-59
2021/07/01 01:23:15;;;;;;;;;8.25;7.50;;;;;16.50;66.35;101052.31;5076324;27;45355;-59
2021/07/01 01:25:43;;;;;;;;;8.00;6.25;;;;;16.47;66.64;101051.63;5076226;28;45401;-59
2021/07/01 01:28:08;;;;;;;;;8.25;8.25;;;;;16.43;66.82;101041.53;5074989;28;45726;-59
2021/07/01 01:30:36;;;;;;;;;8.25;6.75;;;;;16.44;66.50;101049.31;5075751;27;57809;-60
2021/07/01 01:33:04;;;;;;;;;6.75;6.75;;;;;16.44;66.55;101051.13;5076250;27;45318;-60
2021/07/01 01:35:29;;;;;;;;;9.50;7.00;;;;;16.44;66.82;101045.84;5075980;27;45429;-60
2021/07/01 01:37:55;;;;;;;;;7.00;6.75;;;;;16.42;66.51;101053.13;5075155;27;71692;-60
2021/07/01 01:40:20;;;;;;;;;9.25;7.25;;;;;16.41;66.69;101047.00;5075643;27;59879;-60
2021/07/01 01:42:45;;;;;;;;;7.75;7.00;;;;;16.42;66.94;101046.00;5075652;27;57938;-60
2021/07/01 01:45:11;;;;;;;;;6.75;6.75;;;;;16.43;66.75;101044.16;5075062;27;68369;-61
2021/07/01 01:47:36;;;;;;;;;5.75;5.00;;;;;16.45;66.75;101045.66;5075782;27;45506;-60
2021/07/01 01:50:02;;;;;;;;;10.50;6.25;;;;;16.45;67.16;101045.66;5075151;27;66577;-61
2021/07/01 01:52:27;;;;;;;;;6.50;6.50;;;;;16.46;66.83;101043.84;5075897;27;45454;-59
2021/07/01 01:54:53;;;;;;;;;7.75;6.00;;;;;16.44;67.24;101038.69;5075040;27;68393;-58
2021/07/01 01:57:18;;;;;;;;;6.25;5.25;;;;;16.43;66.99;101041.53;5074635;28;45294;-60
2021/07/01 01:59:44;;;;;;;;;6.50;6.00;;;;;16.43;67.29;101046.81;5075283;27;55774;-60
2021/07/01 02:02:09;;;;;;;;;8.00;6.75;;;;;16.41;67.20;101049.66;5075140;27;59673;-60
2021/07/01 02:04:35;;;;;;;;;6.50;6.00;;;;;16.42;67.06;101045.16;5075901;27;68392;-60
2021/07/01 02:07:00;;;;;;;;;8.25;6.50;;;;;16.40;67.14;101045.34;5078136;27;72943;-60
2021/07/01 02:09:25;;;;;;;;;8.00;7.25;;;;;16.40;66.97;101041.84;5078968;27;48891;-61
2021/07/01 02:11:51;;;;;;;;;6.75;6.25;;;;;16.40;66.90;101042.69;5079333;27;45454;-60
2021/07/01 02:14:17;;;;;;;;;8.50;7.00;;;;;16.38;66.77;101046.47;5078524;27;58704;-60
2021/07/01 02:16:42;;;;;;;;;10.00;8.50;;;;;16.35;66.95;101045.00;5079161;27;45374;-59
2021/07/01 02:19:08;;;;;;;;;8.25;7.00;;;;;16.30;67.12;101042.00;5079065;27;45220;-58
2021/07/01 02:21:33;;;;;;;;;8.25;7.50;;;;;16.27;67.29;101042.31;5079018;27;45245;-60
2021/07/01 02:23:58;;;;;;;;;8.00;6.00;;;;;16.23;67.35;101040.97;5079007;27;45223;-59
2021/07/01 02:26:24;;;;;;;;;9.00;6.25;;;;;16.20;67.23;101036.81;5078819;27;45612;-60
2021/07/01 02:28:49;;;;;;;;;8.25;7.00;;;;;16.17;67.06;101037.97;5078454;27;56122;-58
2021/07/01 02:31:15;;;;;;;;;6.50;6.50;;;;;16.15;67.08;101042.59;5078269;27;58242;-58
2021/07/01 02:33:40;;;;;;;;;9.25;5.75;;;;;16.12;67.28;101034.97;5078557;27;52209;-60
2021/07/01 02:36:05;;;;;;;;;7.50;7.50;;;;;16.08;67.45;101036.28;5077557;28;45442;-59
2021/07/01 02:38:31;;;;;;;;;7.50;7.00;;;;;16.06;67.31;101032.94;5078915;27;45424;-61
2021/07/01 02:40:56;;;;;;;;;9.25;7.50;;;;;16.02;67.27;101029.81;5077891;27;67817;-59
2021/07/01 02:43:22;;;;;;;;;7.75;7.00;;;;;15.99;67.56;101035.44;5078412;27;51911;-57
2021/07/01 02:45:47;;;;;;;;;9.25;6.50;;;;;15.98;67.83;101032.91;5077804;27;62557;-60
2021/07/01 02:48:12;;;;;;;;;6.25;5.00;;;;;15.94;67.67;101031.56;5077782;27;63805;-60
2021/07/01 02:50:38;;;;;;;;;8.75;5.50;;;;;15.91;68.02;101030.09;5078392;27;48423;-60
2021/07/01 02:53:03;;;;;;;;;6.75;5.00;;;;;15.89;67.69;101033.91;5077918;27;60973;-60
2021/07/01 02:55:29;;;;;;;;;9.00;7.00;;;;;15.88;67.95;101027.75;5078588;27;45321;-59
2021/07/01 02:57:54;;;;;;;;;8.25;5.75;;;;;15.89;68.00;101025.94;5078636;27;45595;-60
2021/07/01 03:00:19;;;;;;;;;10.75;8.25;;;;;15.89;67.72;101024.13;5077190;27;45549;-59
2021/07/01 03:02:45;;;;;;;;;9.50;9.50;;;;;15.90;68.00;101033.72;5077625;27;66162;-60
2021/07/01 03:05:10;;;;;;;;;8.25;8.25;;;;;15.91;68.18;101029.25;5077785;27;59833;-60
2021/07/01 03:07:36;;;;;;;;;8.25;7.00;;;;;15.92;67.99;101030.91;5078388;28;45351;-60
2021/07/01 03:10:01;;;;;;;;;7.00;6.00;;;;;15.92;67.94;101030.91;5078220;27;45562;-60
2021/07/01 03:12:26;;;;;;;;;6.00;6.00;;;;;15.92;67.88;101021.16;5078241;28;46127;-61
2021/07/01 03:14:52;;;;;;;;;10.25;8.25;;;;;15.92;67.99;101017.66;5078026;27;48032;-59
2021/07/01 03:17:17;;;;;;;;;9.00;7.25;;;;;15.94;68.08;101020.97;5077226;27;45168;-60
2021/07/01 03:19:43;;;;;;;;;6.25;6.25;;;;;15.93;68.12;101019.31;5077702;27;46607;-60
2021/07/01 03:22:08;;;;;;;;;6.25;6.00;;;;;15.93;68.11;101021.97;5077577;27;57434;-60
2021/07/01 03:24:33;;;;;;;;;5.50;5.50;;;;;15.89;67.78;101018.00;5078061;27;45415;-60
2021/07/01 03:27:00;;;;;;;;;9.00;8.50;;;;;15.88;68.03;101011.84;5077681;27;53759;-60
2021/07/01 03:29:26;;;;;;;;;7.75;7.75;;;;;15.87;68.11;101018.13;5078133;28;45407;-60
2021/07/01 03:31:51;;;;;;;;;6.00;6.00;;;;;15.87;68.07;101018.13;5077623;27;45425;-60
2021/07/01 03:34:17;;;;;;;;;8.25;7.00;;;;;15.89;67.87;101020.66;5076855;27;65176;-61
2021/07/01 03:36:42;;;;;;;;;10.00;7.00;;;;;15.88;68.08;101011.84;5077190;27;59777;-60
2021/07/01 03:39:08;;;;;;;;;11.75;9.50;;;;;15.87;68.05;101016.34;5077130;27;61555;-60
2021/07/01 03:41:33;;;;;;;;;11.75;9.25;;;;;15.87;68.36;101015.50;5077462;27;46135;-60
2021/07/01 03:43:59;;;;;;;;;7.25;7.00;;;;;15.83;68.29;101012.31;5077644;28;45470;-60
2021/07/01 03:46:24;;;;;;;;;8.00;6.25;;;;;15.78;68.39;101008.47;5076739;27;69297;-60
2021/07/01 03:48:50;;;;;;;;;8.50;7.25;;;;;15.76;68.15;101010.44;5077898;28;45543;-60
2021/07/01 03:51:15;;;;;;;;;8.25;8.25;;;;;15.75;68.18;101009.63;5077479;27;45795;-60
2021/07/01 03:53:40;;;;;;;;;6.00;6.00;;;;;15.74;68.58;101015.91;5076507;27;70102;-59
2021/07/01 03:56:06;;;;;;;;;8.75;6.00;;;;;15.74;68.26;101015.91;5077495;27;45211;-60
2021/07/01 03:58:31;;;;;;;;;11.00;9.25;;;;;15.72;68.66;101026.66;5075303;28;63640;-60
2021/07/01 04:00:56;;;;;;;;;6.75;6.00;;;;;15.71;68.76;101024.97;5077384;27;45953;-60
2021/07/01 04:03:22;;;;;;;;;10.00;9.00;;;;;15.71;68.67;101026.81;5076712;27;61756;-60
2021/07/01 04:05:47;;;;;;;;;8.75;7.00;;;;;15.67;68.74;101025.47;5077583;27;45692;-60
2021/07/01 04:08:13;;;;;;;;;8.75;7.00;;;;;15.66;68.74;101029.09;5076752;27;58184;-60
2021/07/01 04:10:38;;;;;;;;;7.50;7.00;;;;;15.66;68.85;101021.97;5076603;27;59187;-59
2021/07/01 04:13:04;;;;;;;;;11.00;9.00;;;;;15.66;68.81;101026.47;5077224;27;45370;-60
2021/07/01 04:15:29;;;;;;;;;8.00;8.00;;;;;15.67;68.90;101028.94;5077317;27;45370;-60
2021/07/01 04:17:54;;;;;;;;;11.50;9.75;;;;;15.68;68.84;101022.66;5077172;27;45509;-60
2021/07/01 04:20:20;;;;;;;;;11.75;11.00;;;;;15.68;68.95;101024.47;5074915;28;62055;-60
2021/07/01 04:22:45;;;;;;;;;10.75;10.25;;;;;15.68;68.82;101027.94;5076171;27;71138;-60
2021/07/01 04:25:11;;;;;;;;;13.75;8.25;;;;;15.69;68.61;101031.44;5077149;27;45624;-60
2021/07/01 04:27:37;;;;;;;;;9.50;8.50;;;;;15.69;68.66;101028.78;5076754;27;45326;-60
2021/07/01 04:30:04;;;;;;;;;11.00;6.00;;;;;15.69;68.82;101029.59;5076983;27;45375;-59
2021/07/01 04:32:29;;;;;;;;;9.25;9.25;;;;;15.70;68.88;101025.97;5077116;27;46024;-60
2021/07/01 04:34:54;;;;;;;;;11.50;8.75;;;;;15.71;68.64;101034.75;5076515;27;56724;-59
2021/07/01 04:37:20;;;;;;;;;12.25;10.75;;;;;15.71;68.95;101037.41;5076360;27;57578;-60
2021/07/01 04:39:45;;;;;;;;;13.00;9.75;;;;;15.72;68.54;101033.78;5076075;27;66626;-60
2021/07/01 04:42:11;;;;;;;;;12.25;11.25;;;;;15.72;68.90;101042.53;5076783;27;45239;-60
2021/07/01 04:44:36;;;;;;;;;12.75;10.25;;;;;15.75;69.05;101038.75;5076845;27;45362;-60
2021/07/01 04:47:02;;;;;;;;;12.50;10.75;;;;;15.76;69.08;101042.22;5075885;27;67565;-60
2021/07/01 04:49:27;;;;;;;;;13.25;10.75;;;;;15.77;69.06;101039.44;5076071;27;45377;-60
2021/07/01 04:51:53;;;;;;;;;10.25;10.00;;;;;15.77;68.97;101036.78;5076013;27;60257;-60
2021/07/01 04:54:19;;;;;;;;;13.50;11.25;;;;;15.78;68.68;101035.81;5075879;27;58755;-60
2021/07/01 04:56:45;;;;;;;;;11.75;9.25;;;;;15.78;68.83;101037.59;5076893;27;45467;-58
2021/07/01 04:59:14;;;;;;;;;10.50;9.75;;;;;15.76;68.89;101035.13;5075086;28;47007;-59
2021/07/01 05:01:40;;;;;;;;;11.50;10.00;;;;;15.73;68.93;101033.59;5076520;28;45880;-60
2021/07/01 05:04:10;;;;;;;;;10.75;9.00;;;;;15.71;68.98;101029.47;5076579;27;45385;-60
2021/07/01 05:06:36;;;;;;;;;26.75;25.75;;;;;15.71;69.27;101042.72;5076418;27;45322;-60
2021/07/01 05:09:02;;;;;;;;;15.00;10.50;;;;;15.67;69.10;101041.38;5076222;27;45326;-60
2021/07/01 05:11:27;;;;;;;;;12.00;11.25;;;;;15.68;69.01;101037.72;5076271;27;45447;-60
2021/07/01 05:13:53;;;;;;;;;15.50;10.75;;;;;15.68;68.91;101048.31;5075562;27;57454;-60
2021/07/01 05:16:18;;;;;;;;;12.50;11.50;;;;;15.66;69.25;101047.66;5075407;27;63062;-59
2021/07/01 05:18:44;;;;;;;;;13.50;12.50;;;;;15.68;68.79;101048.31;5075796;27;50452;-59
2021/07/01 05:21:09;;;;;;;;;18.25;13.25;;;;;15.68;68.51;101046.50;5075462;27;63643;-60
2021/07/01 05:23:34;;;;;;;;;13.75;12.00;;;;;15.69;68.80;101050.81;5075460;27;61320;-61
2021/07/01 05:26:00;;;;;;;;;12.00;11.00;;;;;15.67;68.91;101049.31;5075400;27;68855;-59
2021/07/01 05:28:25;;;;;;;;;13.25;13.25;;;;;15.68;68.81;101051.78;5074154;28;52044;-59
2021/07/01 05:30:50;;;;;;;;;15.50;11.00;;;;;15.68;68.71;101043.03;5075434;27;63860;-59
2021/07/01 05:33:16;;;;;;;;;14.00;12.00;;;;;15.68;68.70;101051.78;5075042;27;68602;-59
2021/07/01 05:35:41;;;;;;;;;12.75;12.50;;;;;15.69;68.90;101048.16;5076059;27;45439;-60
2021/07/01 05:38:07;;;;;;;;;17.75;13.25;;;;;15.70;68.71;101049.00;5075888;27;47141;-60
2021/07/01 05:40:32;;;;;;;;;13.50;12.75;;;;;15.71;68.92;101051.47;5077524;27;61504;-59
2021/07/01 05:42:58;;;;;;;;;12.25;10.75;;;;;15.72;69.05;101055.78;5079919;27;45347;-57
2021/07/01 05:45:23;;;;;;;;;15.25;12.00;;;;;15.74;69.21;101053.00;5079636;27;45200;-60
2021/07/01 05:47:49;;;;;;;;;17.25;13.75;;;;;15.77;68.97;101055.34;5079148;27;46916;-60
2021/07/01 05:50:14;;;;;;;;;16.75;14.75;;;;;15.80;68.87;101057.66;5079453;27;45331;-59
2021/07/01 05:52:42;;;;;;;;;14.25;14.25;;;;;15.85;68.97;101054.53;5078402;27;45452;-58
2021/07/01 05:55:08;;;;;;;;;17.25;13.75;;;;;15.90;68.92;101052.28;5078747;27;45505;-60
2021/07/01 05:57:34;;;;;;;;;17.25;14.75;;;;;15.93;68.71;101056.41;5078610;27;46245;-59
2021/07/01 05:59:59;;;;;;;;;17.75;17.00;;;;;15.95;68.49;101055.28;5077482;27;69512;-60
2021/07/01 06:02:25;;;;;;;;;18.75;15.75;;;;;16.00;68.13;101057.44;5077960;27;59083;-60
2021/07/01 06:04:50;;;;;;;;;18.00;16.50;;;;;16.01;68.13;101059.09;5078277;27;51615;-60
2021/07/01 06:07:23;;;;;;;;;18.25;17.00;;;;;16.04;68.23;101056.13;5077855;27;73729;-60
2021/07/01 06:09:53;;;;;;;;;15.00;13.25;;;;;16.07;68.41;101063.78;5079159;28;45373;-59
2021/07/01 06:12:19;;;;;;;;;18.00;16.75;;;;;16.10;68.46;101063.44;5077802;28;45226;-59
2021/07/01 06:14:44;;;;;;;;;15.00;14.00;;;;;16.12;68.14;101066.78;5061010;28;45285;-59
2021/07/01 06:17:10;;;;;;;;;18.25;15.75;;;;;16.14;67.79;101070.09;5077560;27;46123;-59
2021/07/01 06:19:35;;;;;;;;;18.00;15.00;;;;;16.16;67.90;101072.59;5077932;27;62198;-60
2021/07/01 06:22:01;;;;;;;;;17.25;16.75;;;;;16.19;68.00;101071.44;5077521;27;45456;-60
2021/07/01 06:24:27;;;;;;;;;18.00;16.25;;;;;16.22;67.69;101081.72;5078535;27;55181;-59
2021/07/01 06:26:53;;;;;;;;;18.50;15.75;;;;;16.25;67.27;101082.22;5060544;27;46536;-59
2021/07/01 06:29:18;;;;;;;;;16.50;15.75;;;;;16.27;67.07;101074.13;5078895;27;45328;-59
2021/07/01 06:31:43;;;;;;;;;17.25;17.00;;;;;16.30;67.01;101077.28;5078887;27;45266;-59
2021/07/01 06:34:09;;;;;;;;;17.00;14.75;;;;;16.35;66.96;101087.41;5077930;27;62988;-59
2021/07/01 06:36:36;;;;;;;;;21.25;16.75;;;;;16.40;67.22;101087.78;5077148;28;46402;-60
2021/07/01 06:39:03;;;;;;;;;13.25;11.75;;;;;16.46;67.06;101080.97;5077110;28;45397;-59
2021/07/01 06:41:28;;;;;;;;;19.50;18.50;;;;;16.54;66.61;101077.50;5077228;28;45450;-60
2021/07/01 06:43:54;;;;;;;;;17.25;16.50;;;;;16.62;66.20;101077.53;5060578;28;45602;-60
2021/07/01 06:46:20;;;;;;;;;16.00;14.75;;;;;16.68;65.18;101084.84;5077115;28;46143;-59
2021/07/01 06:48:48;;;;;;;;;16.00;12.75;;;;;16.73;64.41;101077.22;5077186;27;45354;-60
2021/07/01 06:51:14;;;;;;;;;16.50;13.25;;;;;16.81;64.15;101080.91;5078469;27;45377;-59
2021/07/01 06:53:41;;;;;;;;;16.50;14.00;;;;;16.86;64.07;101079.41;5078481;27;45307;-59
2021/07/01 06:56:06;;;;;;;;;14.50;10.75;;;;;16.91;64.00;101081.56;5078165;27;45297;-60
2021/07/01 06:58:32;;;;;;;;;17.00;13.25;;;;;16.96;63.93;101079.25;5077864;27;54038;-59
2021/07/01 07:00:57;;;;;;;;;14.75;14.25;;;;;17.00;63.44;101077.94;5077239;27;45261;-59
2021/07/01 07:03:23;;;;;;;;;18.00;14.75;;;;;17.06;63.02;101087.09;5078442;28;45481;-59
2021/07/01 07:05:49;;;;;;;;;10.75;10.75;;;;;17.09;63.01;101084.09;5076951;28;46132;-60
2021/07/01 07:08:15;;;;;;;;;14.75;12.00;;;;;17.16;62.54;101089.56;5077935;27;45958;-60
2021/07/01 07:10:42;;;;;;;;;15.75;13.00;;;;;17.19;62.20;101086.56;5078296;27;45450;-60
2021/07/01 07:13:08;;;;;;;;;16.25;11.75;;;;;17.22;62.02;101099.53;5078144;27;45470;-60
2021/07/01 07:15:33;;;;;;;;;14.25;13.00;;;;;17.26;62.33;101106.16;5076810;28;45396;-59
2021/07/01 07:18:22;;;;;;;;;16.75;13.00;;;;;17.30;62.26;101094.22;5077829;27;45484;-59
2021/07/01 07:21:07;;;;;;;;;16.25;14.50;;;;;17.37;61.93;101093.56;5076707;28;45379;-59
2021/07/01 07:23:37;;;;;;;;;10.75;8.75;;;;;17.44;61.54;101095.34;5078242;27;45162;-58
2021/07/01 07:26:19;;;;;;;;;13.75;11.25;;;;;17.52;61.93;101105.13;5077837;27;45336;-56
2021/07/01 07:28:47;;;;;;;;;13.50;11.25;;;;;17.60;61.15;101102.47;5077721;27;47793;-58
2021/07/01 07:31:17;;;;;;;;;15.00;13.25;;;;;17.68;61.12;101104.31;5076572;27;45421;-59
2021/07/01 07:33:42;;;;;;;;;11.75;11.00;;;;;17.74;60.21;101105.44;5060460;28;45379;-59
2021/07/01 07:36:08;;;;;;;;;11.75;11.50;;;;;17.80;59.45;101107.44;5058420;28;72156;-60
2021/07/01 07:38:33;;;;;;;;;12.75;11.75;;;;;17.85;59.20;101099.78;5053814;27;63962;-60
2021/07/01 07:40:58;;;;;;;;;16.75;14.00;;;;;17.90;59.05;101097.44;5042321;28;46247;-59
2021/07/01 07:43:25;;;;;;;;;13.25;13.00;;;;;17.95;59.29;101102.22;5043562;27;46237;-59
2021/07/01 07:45:51;;;;;;;;;12.25;9.75;;;;;18.00;59.55;101097.25;5039714;27;45525;-60
2021/07/01 07:48:17;;;;;;;;;14.25;11.75;;;;;18.07;58.97;101097.41;5052138;27;45868;-59
2021/07/01 07:50:44;;;;;;;;;12.75;9.25;;;;;18.14;59.39;101101.03;5064341;28;45519;-59
2021/07/01 07:53:11;;;;;;;;;12.25;11.75;;;;;18.21;59.47;101093.22;5029880;27;45529;-59
2021/07/01 07:55:36;;;;;;;;;15.75;10.50;;;;;18.29;58.65;101097.66;5039131;27;47048;-59
2021/07/01 07:58:04;;;;;;;;;11.00;9.00;;;;;18.39;58.78;101095.63;5033902;27;70383;-59
2021/07/01 08:00:29;;;;;;;;;10.25;9.00;;;;;18.49;58.11;101100.72;5016711;28;45257;-57
2021/07/01 08:03:00;;;;;;;;;10.00;8.75;;;;;18.62;57.75;101100.97;4996324;28;70077;-59
2021/07/01 08:05:30;;;;;;;;;11.25;9.00;;;;;18.79;57.99;101100.88;4987187;28;46274;-59
2021/07/01 08:07:56;;;;;;;;;9.75;9.75;;;;;18.97;56.72;101108.59;5010107;28;45397;-58
2021/07/01 08:10:27;;;;;;;;;18.25;16.75;;;;;19.15;56.64;101110.97;4991112;28;46250;-57
2021/07/01 08:12:53;;;;;;;;;14.00;10.75;;;;;19.30;56.14;101107.50;4994355;28;45415;-59
2021/07/01 08:15:19;;;;;;;;;12.25;11.75;;;;;19.46;55.50;101104.69;4988859;27;53184;-60
2021/07/01 08:17:46;;;;;;;;;11.50;11.00;;;;;19.60;54.95;101097.75;4998034;28;45508;-60
2021/07/01 08:20:13;;;;;;;;;11.00;10.00;;;;;19.77;55.25;101102.88;5001080;27;45421;-59
2021/07/01 08:22:42;;;;;;;;;15.50;11.00;;;;;19.94;54.45;101104.41;5003414;28;45381;-60
2021/07/01 08:25:08;;;;;;;;;14.00;11.50;;;;;20.11;54.44;101096.22;4998519;28;45584;-58
2021/07/01 08:27:33;;;;;;;;;21.25;16.00;;;;;20.29;52.89;101091.28;5015013;28;45447;-59
2021/07/01 08:30:01;;;;;;;;;14.50;13.75;;;;;20.44;52.38;101088.56;5012742;28;45887;-58
2021/07/01 08:32:26;;;;;;;;;14.00;12.50;;;;;20.56;52.30;101080.94;5020034;28;45510;-60
2021/07/01 08:34:52;;;;;;;;;13.75;11.00;;;;;20.72;52.09;101079.84;5006401;28;52936;-59
2021/07/01 08:37:17;;;;;;;;;13.00;11.50;;;;;20.90;52.05;101076.75;4999886;27;45351;-60
2021/07/01 08:39:42;;;;;;;;;16.25;14.00;;;;;21.06;50.80;101074.84;5005383;28;62976;-59
2021/07/01 08:42:08;;;;;;;;;17.25;14.50;;;;;21.17;50.72;101068.16;5011802;28;62258;-59
2021/07/01 08:44:40;;;;;;;;;16.00;13.00;;;;;21.28;50.29;101072.13;5013407;27;46104;-59
2021/07/01 08:47:16;;;;;;;;;17.00;15.50;;;;;21.36;49.82;101074.66;5021734;28;45535;-59
2021/07/01 08:49:55;;;;;;;;;16.25;13.75;;;;;21.46;49.89;101075.16;4993547;27;45504;-60
2021/07/01 08:52:25;;;;;;;;;16.50;13.25;;;;;21.53;49.16;101079.72;4990785;28;45544;-60
2021/07/01 08:54:55;;;;;;;;;19.25;17.25;;;;;21.57;48.92;101086.31;4997742;28;46063;-59
2021/07/01 08:57:21;;;;;;;;;19.50;16.00;;;;;21.56;48.46;101079.31;5016485;28;45468;-59
2021/07/01 08:59:53;;;;;;;;;10.75;10.75;;;;;21.53;48.65;101080.53;4986434;28;59982;-59
2021/07/01 09:02:19;;;;;;;;;15.00;14.50;;;;;21.53;49.06;101083.19;5024399;28;45477;-60
2021/07/01 09:04:54;;;;;;;;;13.75;13.75;;;;;21.47;48.78;101079.47;5001366;28;46234;-60
2021/07/01 09:07:21;;;;;;;;;13.00;11.00;;;;;21.40;48.72;101080.47;5031747;28;45418;-59
2021/07/01 09:09:59;;;;;;;;;14.50;13.50;;;;;21.41;48.41;101077.56;5038258;28;45351;-60
2021/07/01 09:12:26;;;;;;;;;17.25;13.75;;;;;21.44;48.10;101081.72;5033268;28;45585;-60
2021/07/01 09:14:58;;;;;;;;;15.50;12.50;;;;;21.49;48.68;101080.09;5033950;28;46352;-59
2021/07/01 09:17:30;;;;;;;;;16.25;15.00;;;;;21.60;48.39;101081.41;5009867;27;45282;-60
2021/07/01 09:20:00;;;;;;;;;17.25;14.75;;;;;21.61;47.58;101084.91;4992430;27;45378;-60
2021/07/01 09:22:26;;;;;;;;;18.25;16.75;;;;;21.58;47.38;101082.63;4998078;28;45418;-60
2021/07/01 09:24:52;;;;;;;;;18.75;10.50;;;;;21.56;47.59;101082.81;5003203;28;46094;-60
2021/07/01 09:27:17;;;;;;;;;14.25;13.25;;;;;21.61;47.26;101079.56;4998408;28;45536;-59
2021/07/01 09:29:45;;;;;;;;;13.00;10.75;;;;;21.66;46.50;101079.84;5017555;28;45418;-59
2021/07/01 09:32:11;;;;;;;;;14.50;12.25;;;;;21.69;46.24;101074.09;5030970;27;45643;-59
2021/07/01 09:34:37;;;;;;;;;11.50;9.50;;;;;21.75;46.36;101075.97;5017087;27;46162;-60
2021/07/01 09:37:02;;;;;;;;;14.00;12.00;;;;;21.85;46.53;101072.94;5013792;28;45545;-60
2021/07/01 09:39:29;;;;;;;;;14.25;10.25;;;;;21.97;46.90;101069.72;5037618;27;45522;-59
2021/07/01 09:42:00;;;;;;;;;13.50;12.25;;;;;22.09;47.50;101076.97;5027152;28;45493;-60
2021/07/01 09:44:25;;;;;;;;;13.00;11.50;;;;;22.13;47.25;101069.34;5001784;28;46210;-60
2021/07/01 09:46:51;;;;;;;;;19.25;19.00;;;;;22.15;46.66;101083.34;4996955;28;45453;-60
2021/07/01 09:49:20;;;;;;;;;18.50;14.25;;;;;22.16;46.88;101081.53;4984896;28;62224;-59
2021/07/01 09:51:47;;;;;;;;;15.50;15.50;;;;;22.13;46.74;101084.59;5042197;28;45450;-60
2021/07/01 09:54:13;;;;;;;;;19.75;16.50;;;;;22.07;46.42;101079.00;5001161;27;45319;-60
2021/07/01 09:56:41;;;;;;;;;18.50;16.00;;;;;22.02;46.22;101078.78;4988712;28;49128;-60
2021/07/01 09:59:22;;;;;;;;;16.50;14.25;;;;;21.95;46.09;101083.28;5022587;27;45432;-60
2021/07/01 10:01:47;;;;;;;;;17.25;14.25;;;;;21.87;46.82;101086.94;5024583;28;45294;-60
2021/07/01 10:04:12;;;;;;;;;17.25;17.25;;;;;21.79;48.04;101085.25;4999228;28;46226;-59
2021/07/01 10:06:38;;;;;;;;;18.00;15.25;;;;;21.77;46.91;101087.28;5011939;28;71099;-60
2021/07/01 10:09:06;;;;;;;;;13.50;12.50;;;;;21.72;46.63;101087.06;5045300;27;45611;-60
2021/07/01 10:11:42;;;;;;;;;15.50;12.50;;;;;21.70;47.01;101089.13;5060393;27;45532;-60
2021/07/01 10:14:12;;;;;;;;;20.00;18.25;;;;;21.68;47.42;101087.66;5027423;27;46044;-59
2021/07/01 10:16:37;;;;;;;;;22.50;17.75;;;;;21.65;47.82;101086.22;5054090;28;45840;-60
2021/07/01 10:19:04;;;;;;;;;16.00;15.75;;;;;21.61;47.70;101087.59;5017598;28;46240;-59
2021/07/01 10:21:30;;;;;;;;;16.25;14.75;;;;;21.59;48.04;101086.97;5042181;27;45488;-59
2021/07/01 10:24:12;;;;;;;;;16.75;15.75;;;;;21.60;48.68;101080.59;5010179;27;46283;-59
2021/07/01 10:26:45;;;;;;;;;23.00;16.50;;;;;21.62;49.03;101083.94;5020739;28;45888;-59
2021/07/01 10:29:11;;;;;;;;;15.25;14.25;;;;;21.63;49.71;101085.56;5041477;28;45449;-60
2021/07/01 10:31:47;;;;;;;;;22.25;18.50;;;;;21.63;48.64;101080.22;5038273;28;45663;-60
2021/07/01 10:34:13;;;;;;;;;19.25;16.25;;;;;21.61;48.31;101077.69;5028219;27;45410;-60
2021/07/01 10:36:38;;;;;;;;;18.75;16.50;;;;;21.67;48.81;101078.81;4997029;28;45297;-60
2021/07/01 10:39:03;;;;;;;;;16.50;15.50;;;;;21.78;48.68;101075.56;4983585;28;45395;-60
2021/07/01 10:41:31;;;;;;;;;20.75;15.50;;;;;21.91;47.57;101074.00;4985567;28;64864;-60
2021/07/01 10:43:56;;;;;;;;;15.75;14.50;;;;;22.03;47.34;101074.25;4998499;28;46666;-60
2021/07/01 10:46:42;;;;;;;;;18.50;15.75;;;;;22.17;46.55;101073.28;4997953;28;48476;-60
2021/07/01 10:49:08;;;;;;;;;17.25;14.75;;;;;22.20;46.09;101072.88;5009656;28;45513;-60
2021/07/01 10:51:33;;;;;;;;;18.00;14.25;;;;;22.23;46.01;101079.69;4996677;28;45742;-59
2021/07/01 10:54:12;;;;;;;;;16.25;15.00;;;;;22.27;46.21;101075.56;4994721;28;45563;-61
2021/07/01 10:56:42;;;;;;;;;16.75;16.00;;;;;22.31;46.95;101073.34;5003701;28;45929;-59
2021/07/01 10:59:08;;;;;;;;;19.75;16.25;;;;;22.35;46.78;101072.72;4996500;27;45496;-59
2021/07/01 11:01:35;;;;;;;;;14.00;13.00;;;;;22.37;46.14;101076.00;5012109;28;45621;-58
2021/07/01 11:04:10;;;;;;;;;15.00;14.00;;;;;22.38;46.00;101076.84;5011104;28;46056;-60
2021/07/01 11:06:36;;;;;;;;;14.75;14.25;;;;;22.34;45.57;101079.09;5007161;28;45921;-59
2021/07/01 11:09:03;;;;;;;;;13.00;13.00;;;;;22.29;45.36;101086.91;5031214;28;45644;-59
2021/07/01 11:11:33;;;;;;;;;16.00;15.00;;;;;22.22;45.06;101083.41;5021043;27;45490;-59